createdAt,value
2022-12-07T00:00:34.202Z,0.00
2022-12-07T00:01:34.180Z,0.00
2022-12-07T00:02:34.249Z,0.00
2022-12-07T00:03:34.241Z,0.00
2022-12-07T00:04:34.119Z,0.00
2022-12-07T00:05:34.156Z,0.00
2022-12-07T00:06:34.086Z,0.00
2022-12-07T00:07:34.097Z,0.00
2022-12-07T00:08:34.036Z,0.00
2022-12-07T00:09:34.020Z,0.00
2022-12-07T00:10:33.999Z,0.00
2022-12-07T00:11:33.985Z,0.00
2022-12-07T00:12:33.958Z,0.00
2022-12-07T00:13:33.939Z,0.00
2022-12-07T00:14:33.928Z,0.00
2022-12-07T00:15:33.902Z,0.00
2022-12-07T00:16:33.928Z,0.00
2022-12-07T00:17:33.880Z,0.00
2022-12-07T00:18:33.843Z,0.00
2022-12-07T00:19:33.824Z,0.00
2022-12-07T00:20:33.806Z,0.00
2022-12-07T00:21:33.785Z,0.00
2022-12-07T00:22:33.767Z,0.00
2022-12-07T00:23:33.743Z,0.00
2022-12-07T00:24:33.734Z,0.00
2022-12-07T00:25:33.710Z,0.00
2022-12-07T00:26:33.699Z,0.00
2022-12-07T00:27:33.660Z,0.00
2022-12-07T00:28:33.707Z,0.00
2022-12-07T00:29:33.621Z,0.00
2022-12-07T00:30:33.603Z,0.00
2022-12-07T00:31:33.623Z,0.00
2022-12-07T00:32:33.568Z,0.00
2022-12-07T00:33:33.542Z,0.00
2022-12-07T00:34:33.525Z,0.00
2022-12-07T00:35:33.504Z,0.00
2022-12-07T00:36:33.487Z,0.00
2022-12-07T00:37:33.461Z,0.00
2022-12-07T00:38:33.443Z,0.00
2022-12-07T00:39:33.448Z,0.00
2022-12-07T00:40:33.411Z,0.00
2022-12-07T00:41:33.394Z,0.00
2022-12-07T00:42:33.362Z,0.00
2022-12-07T00:43:33.345Z,0.00
2022-12-07T00:44:33.381Z,0.00
2022-12-07T00:45:33.357Z,0.00
2022-12-07T00:46:33.376Z,0.00
2022-12-07T00:47:33.267Z,0.00
2022-12-07T00:48:33.242Z,0.00
2022-12-07T00:49:33.240Z,0.00
2022-12-07T00:50:33.240Z,0.00
2022-12-07T00:51:33.185Z,0.00
2022-12-07T00:52:33.164Z,0.00
2022-12-07T00:53:38.011Z,0.00
2022-12-07T00:54:33.126Z,0.00
2022-12-07T00:55:33.144Z,0.00
2022-12-07T00:56:33.085Z,0.00
2022-12-07T00:57:33.065Z,0.00
2022-12-07T00:58:33.050Z,0.00
2022-12-07T00:59:33.021Z,0.00
2022-12-07T01:00:33.009Z,0.00
2022-12-07T01:01:33.056Z,0.00
2022-12-07T01:02:32.968Z,0.00
2022-12-07T01:03:33.014Z,0.00
2022-12-07T01:04:32.927Z,0.00
2022-12-07T01:05:32.915Z,0.00
2022-12-07T01:06:32.892Z,0.00
2022-12-07T01:07:32.865Z,0.00
2022-12-07T01:08:32.848Z,0.00
2022-12-07T01:09:32.827Z,0.00
2022-12-07T01:10:32.808Z,0.00
2022-12-07T01:11:32.814Z,0.00
2022-12-07T01:12:32.773Z,0.00
2022-12-07T01:13:32.752Z,0.00
2022-12-07T01:14:32.730Z,0.00
2022-12-07T01:15:32.710Z,0.00
2022-12-07T01:16:32.771Z,0.00
2022-12-07T01:17:32.690Z,0.00
2022-12-07T01:18:32.652Z,0.00
2022-12-07T01:19:32.629Z,0.00
2022-12-07T01:20:32.610Z,0.00
2022-12-07T01:21:32.647Z,0.00
2022-12-07T01:22:32.569Z,0.00
2022-12-07T01:23:32.555Z,0.00
2022-12-07T01:24:32.538Z,0.00
2022-12-07T01:25:32.525Z,0.00
2022-12-07T01:26:32.498Z,0.00
2022-12-07T01:27:32.504Z,0.00
2022-12-07T01:28:32.455Z,0.00
2022-12-07T01:29:32.430Z,0.00
2022-12-07T01:30:32.465Z,0.00
2022-12-07T01:31:32.419Z,0.00
2022-12-07T01:32:32.406Z,0.00
2022-12-07T01:33:32.350Z,0.00
2022-12-07T01:34:32.334Z,0.00
2022-12-07T01:35:32.336Z,0.00
2022-12-07T01:36:32.290Z,0.00
2022-12-07T01:37:32.295Z,0.00
2022-12-07T01:38:32.253Z,0.00
2022-12-07T01:39:32.245Z,0.00
2022-12-07T01:40:32.214Z,0.00
2022-12-07T01:41:32.191Z,0.00
2022-12-07T01:42:32.242Z,0.00
2022-12-07T01:43:32.150Z,0.00
2022-12-07T01:44:32.137Z,0.00
2022-12-07T01:45:32.116Z,0.00
2022-12-07T01:46:32.149Z,0.00
2022-12-07T01:47:32.071Z,0.00
2022-12-07T01:48:32.082Z,0.00
2022-12-07T01:49:32.045Z,0.00
2022-12-07T01:50:32.014Z,0.00
2022-12-07T01:51:31.991Z,0.00
2022-12-07T01:52:31.978Z,0.00
2022-12-07T01:53:31.980Z,0.00
2022-12-07T01:54:31.933Z,0.00
2022-12-07T01:55:31.916Z,0.00
2022-12-07T01:56:31.901Z,0.00
2022-12-07T01:57:31.875Z,0.00
2022-12-07T01:58:31.856Z,0.00
2022-12-07T01:59:31.831Z,0.00
2022-12-07T02:00:31.813Z,0.00
2022-12-07T02:01:31.836Z,0.00
2022-12-07T02:02:31.873Z,0.00
2022-12-07T02:03:31.779Z,0.00
2022-12-07T02:04:31.772Z,0.00
2022-12-07T02:05:31.717Z,0.00
2022-12-07T02:06:31.696Z,0.00
2022-12-07T02:07:31.678Z,0.00
2022-12-07T02:08:31.654Z,0.00
2022-12-07T02:09:31.671Z,0.00
2022-12-07T02:10:31.614Z,0.00
2022-12-07T02:11:31.591Z,0.00
2022-12-07T02:12:31.580Z,0.00
2022-12-07T02:13:31.557Z,0.00
2022-12-07T02:14:31.562Z,0.00
2022-12-07T02:15:31.601Z,0.00
2022-12-07T02:16:31.494Z,0.00
2022-12-07T02:17:31.474Z,0.00
2022-12-07T02:18:31.481Z,0.00
2022-12-07T02:19:31.435Z,0.00
2022-12-07T02:20:31.425Z,0.00
2022-12-07T02:21:31.402Z,0.00
2022-12-07T02:22:31.379Z,0.00
2022-12-07T02:23:31.363Z,0.00
2022-12-07T02:24:31.344Z,0.00
2022-12-07T02:25:31.339Z,0.00
2022-12-07T02:26:31.298Z,0.00
2022-12-07T02:27:31.271Z,0.00
2022-12-07T02:28:31.254Z,0.00
2022-12-07T02:29:31.245Z,0.00
2022-12-07T02:30:31.239Z,0.00
2022-12-07T02:31:31.306Z,0.00
2022-12-07T02:32:31.175Z,0.00
2022-12-07T02:33:31.176Z,0.00
2022-12-07T02:34:31.146Z,0.00
2022-12-07T02:35:31.115Z,0.00
2022-12-07T02:36:31.119Z,0.00
2022-12-07T02:37:31.073Z,0.00
2022-12-07T02:38:31.064Z,0.00
2022-12-07T02:39:31.032Z,0.00
2022-12-07T02:40:31.016Z,0.00
2022-12-07T02:41:31.036Z,0.00
2022-12-07T02:42:31.000Z,0.00
2022-12-07T02:43:30.953Z,0.00
2022-12-07T02:44:30.934Z,0.00
2022-12-07T02:45:30.940Z,0.00
2022-12-07T02:46:30.957Z,0.00
2022-12-07T02:47:30.913Z,0.00
2022-12-07T02:48:30.850Z,0.00
2022-12-07T02:49:30.829Z,0.00
2022-12-07T02:50:30.810Z,0.00
2022-12-07T02:51:30.814Z,0.00
2022-12-07T02:52:30.798Z,0.00
2022-12-07T02:53:30.750Z,0.00
2022-12-07T02:54:30.735Z,0.00
2022-12-07T02:55:30.720Z,0.00
2022-12-07T02:56:30.689Z,0.00
2022-12-07T02:57:30.711Z,0.00
2022-12-07T02:58:30.651Z,0.00
2022-12-07T02:59:30.654Z,0.00
2022-12-07T03:00:30.611Z,0.00
2022-12-07T03:01:30.634Z,0.00
2022-12-07T03:02:30.632Z,0.00
2022-12-07T03:03:30.552Z,0.00
2022-12-07T03:04:30.570Z,0.00
2022-12-07T03:05:30.508Z,0.00
2022-12-07T03:06:30.490Z,0.00
2022-12-07T03:07:30.504Z,0.00
2022-12-07T03:08:30.451Z,0.00
2022-12-07T03:09:30.455Z,0.00
2022-12-07T03:10:30.410Z,0.00
2022-12-07T03:11:30.399Z,0.00
2022-12-07T03:12:30.367Z,0.00
2022-12-07T03:13:30.345Z,0.00
2022-12-07T03:14:30.394Z,0.00
2022-12-07T03:15:30.388Z,0.00
2022-12-07T03:16:30.289Z,0.00
2022-12-07T03:17:30.265Z,0.00
2022-12-07T03:18:30.244Z,0.00
2022-12-07T03:19:30.226Z,0.00
2022-12-07T03:20:30.204Z,0.00
2022-12-07T03:21:30.188Z,0.00
2022-12-07T03:22:30.196Z,0.00
2022-12-07T03:23:30.140Z,0.00
2022-12-07T03:24:30.125Z,0.00
2022-12-07T03:25:30.128Z,0.00
2022-12-07T03:26:30.104Z,0.00
2022-12-07T03:27:30.074Z,0.00
2022-12-07T03:28:30.078Z,0.00
2022-12-07T03:29:30.024Z,0.00
2022-12-07T03:30:30.005Z,0.00
2022-12-07T03:31:30.010Z,0.00
2022-12-07T03:32:29.958Z,0.00
2022-12-07T03:33:29.963Z,0.00
2022-12-07T03:34:29.921Z,0.00
2022-12-07T03:35:29.899Z,0.00
2022-12-07T03:36:29.879Z,0.00
2022-12-07T03:37:29.877Z,0.00
2022-12-07T03:38:29.866Z,0.00
2022-12-07T03:39:29.816Z,0.00
2022-12-07T03:40:29.808Z,0.00
2022-12-07T03:41:29.778Z,0.00
2022-12-07T03:42:29.755Z,0.00
2022-12-07T03:43:29.759Z,0.00
2022-12-07T03:44:29.711Z,0.00
2022-12-07T03:45:29.696Z,0.00
2022-12-07T03:46:29.852Z,0.00
2022-12-07T03:47:29.652Z,0.00
2022-12-07T03:48:29.655Z,0.00
2022-12-07T03:49:29.612Z,0.00
2022-12-07T03:50:29.592Z,0.00
2022-12-07T03:51:29.570Z,0.00
2022-12-07T03:52:29.584Z,0.00
2022-12-07T03:53:29.530Z,0.00
2022-12-07T03:54:29.512Z,0.00
2022-12-07T03:55:29.494Z,0.00
2022-12-07T03:56:29.471Z,0.00
2022-12-07T03:57:29.457Z,0.00
2022-12-07T03:58:29.428Z,0.00
2022-12-07T03:59:29.416Z,0.00
2022-12-07T04:00:29.437Z,0.00
2022-12-07T04:01:29.450Z,0.00
2022-12-07T04:02:29.413Z,0.00
2022-12-07T04:03:29.325Z,0.00
2022-12-07T04:04:29.314Z,0.00
2022-12-07T04:05:29.286Z,0.00
2022-12-07T04:06:29.327Z,0.00
2022-12-07T04:07:29.283Z,0.00
2022-12-07T04:08:29.233Z,0.00
2022-12-07T04:09:29.204Z,0.00
2022-12-07T04:10:29.192Z,0.00
2022-12-07T04:11:29.166Z,0.00
2022-12-07T04:12:29.163Z,0.00
2022-12-07T04:13:29.141Z,0.00
2022-12-07T04:14:29.096Z,0.00
2022-12-07T04:15:29.081Z,0.00
2022-12-07T04:16:29.156Z,0.00
2022-12-07T04:17:29.037Z,0.00
2022-12-07T04:18:29.017Z,0.00
2022-12-07T04:19:29.008Z,0.00
2022-12-07T04:20:29.008Z,0.00
2022-12-07T04:21:28.960Z,0.00
2022-12-07T04:22:28.933Z,0.00
2022-12-07T04:23:28.912Z,0.00
2022-12-07T04:24:28.898Z,0.00
2022-12-07T04:25:28.927Z,0.00
2022-12-07T04:26:28.853Z,0.00
2022-12-07T04:27:28.837Z,0.00
2022-12-07T04:28:28.821Z,0.00
2022-12-07T04:29:28.791Z,0.00
2022-12-07T04:30:28.771Z,0.00
2022-12-07T04:31:28.847Z,0.00
2022-12-07T04:32:28.740Z,0.00
2022-12-07T04:33:28.763Z,0.00
2022-12-07T04:34:28.693Z,0.00
2022-12-07T04:35:28.679Z,0.00
2022-12-07T04:36:28.655Z,0.00
2022-12-07T04:37:28.632Z,0.00
2022-12-07T04:38:28.612Z,0.00
2022-12-07T04:39:28.629Z,0.00
2022-12-07T04:40:28.567Z,0.00
2022-12-07T04:41:28.545Z,0.00
2022-12-07T04:42:28.524Z,0.00
2022-12-07T04:43:28.513Z,0.00
2022-12-07T04:44:28.482Z,0.00
2022-12-07T04:45:28.492Z,0.00
2022-12-07T04:46:28.589Z,0.00
2022-12-07T04:47:28.424Z,0.00
2022-12-07T04:48:28.408Z,0.00
2022-12-07T04:49:28.379Z,0.00
2022-12-07T04:50:28.359Z,0.00
2022-12-07T04:51:28.406Z,0.00
2022-12-07T04:52:28.317Z,0.00
2022-12-07T04:53:28.295Z,0.00
2022-12-07T04:54:28.283Z,0.00
2022-12-07T04:55:28.256Z,0.00
2022-12-07T04:56:28.234Z,0.00
2022-12-07T04:57:28.214Z,0.00
2022-12-07T04:58:28.199Z,0.00
2022-12-07T04:59:28.172Z,0.00
2022-12-07T05:00:28.188Z,0.00
2022-12-07T05:01:28.136Z,0.00
2022-12-07T05:02:28.193Z,0.00
2022-12-07T05:03:28.092Z,0.00
2022-12-07T05:04:28.079Z,0.00
2022-12-07T05:05:28.049Z,0.00
2022-12-07T05:06:28.030Z,0.00
2022-12-07T05:07:28.067Z,0.00
2022-12-07T05:08:27.989Z,0.00
2022-12-07T05:09:27.976Z,0.00
2022-12-07T05:10:27.949Z,0.00
2022-12-07T05:11:27.926Z,0.00
2022-12-07T05:12:27.908Z,0.00
2022-12-07T05:13:27.943Z,0.00
2022-12-07T05:14:27.866Z,0.00
2022-12-07T05:15:27.844Z,0.00
2022-12-07T05:16:28.033Z,0.00
2022-12-07T05:17:27.804Z,0.00
2022-12-07T05:18:27.810Z,0.00
2022-12-07T05:19:27.764Z,0.00
2022-12-07T05:20:27.746Z,0.00
2022-12-07T05:21:27.720Z,0.00
2022-12-07T05:22:27.705Z,0.00
2022-12-07T05:23:27.742Z,0.00
2022-12-07T05:24:27.660Z,0.00
2022-12-07T05:25:27.641Z,0.00
2022-12-07T05:26:27.617Z,0.00
2022-12-07T05:27:27.598Z,0.00
2022-12-07T05:28:27.579Z,0.00
2022-12-07T05:29:27.566Z,0.00
2022-12-07T05:30:27.538Z,0.00
2022-12-07T05:31:27.613Z,0.00
2022-12-07T05:32:27.498Z,0.00
2022-12-07T05:33:27.497Z,0.00
2022-12-07T05:34:27.504Z,0.00
2022-12-07T05:35:27.432Z,0.00
2022-12-07T05:36:27.426Z,0.00
2022-12-07T05:37:27.393Z,0.00
2022-12-07T05:38:27.394Z,0.00
2022-12-07T05:39:27.393Z,0.00
2022-12-07T05:40:27.360Z,0.00
2022-12-07T05:41:27.312Z,0.00
2022-12-07T05:42:27.307Z,0.00
2022-12-07T05:43:27.277Z,0.00
2022-12-07T05:44:27.279Z,0.00
2022-12-07T05:45:27.285Z,0.00
2022-12-07T05:46:27.212Z,0.00
2022-12-07T05:47:27.189Z,0.00
2022-12-07T05:48:27.171Z,0.00
2022-12-07T05:49:27.202Z,0.00
2022-12-07T05:50:27.134Z,0.00
2022-12-07T05:51:27.108Z,0.00
2022-12-07T05:52:27.090Z,0.00
2022-12-07T05:53:27.063Z,0.00
2022-12-07T05:54:27.053Z,0.00
2022-12-07T05:55:27.092Z,0.00
2022-12-07T05:56:27.015Z,0.00
2022-12-07T05:57:26.982Z,0.00
2022-12-07T05:58:26.964Z,0.00
2022-12-07T05:59:26.940Z,0.00
2022-12-07T06:00:26.925Z,0.00
2022-12-07T06:01:26.902Z,0.00
2022-12-07T06:02:27.022Z,0.00
2022-12-07T06:03:26.969Z,0.00
2022-12-07T06:04:26.843Z,0.00
2022-12-07T06:05:26.845Z,0.00
2022-12-07T06:06:26.842Z,0.00
2022-12-07T06:07:26.838Z,0.00
2022-12-07T06:08:26.792Z,0.00
2022-12-07T06:09:26.731Z,0.00
2022-12-07T06:10:26.718Z,0.00
2022-12-07T06:11:26.694Z,0.00
2022-12-07T06:12:26.677Z,0.00
2022-12-07T06:13:26.680Z,0.00
2022-12-07T06:14:26.634Z,0.00
2022-12-07T06:15:26.610Z,0.00
2022-12-07T06:16:26.648Z,0.00
2022-12-07T06:17:26.568Z,0.00
2022-12-07T06:18:26.597Z,0.00
2022-12-07T06:19:26.529Z,0.00
2022-12-07T06:20:26.509Z,0.00
2022-12-07T06:21:26.486Z,0.00
2022-12-07T06:22:26.517Z,0.00
2022-12-07T06:23:26.443Z,0.00
2022-12-07T06:24:26.443Z,0.00
2022-12-07T06:25:26.436Z,0.00
2022-12-07T06:26:26.387Z,0.00
2022-12-07T06:27:26.462Z,0.00
2022-12-07T06:28:26.366Z,0.00
2022-12-07T06:29:26.347Z,0.00
2022-12-07T06:30:26.304Z,0.00
2022-12-07T06:31:26.308Z,0.00
2022-12-07T06:32:26.266Z,0.00
2022-12-07T06:33:26.291Z,0.00
2022-12-07T06:34:26.219Z,0.00
2022-12-07T06:35:26.198Z,0.00
2022-12-07T06:36:27.411Z,0.00
2022-12-07T06:37:26.158Z,0.00
2022-12-07T06:38:26.140Z,0.00
2022-12-07T06:39:26.194Z,0.00
2022-12-07T06:40:26.100Z,0.00
2022-12-07T06:41:26.076Z,0.00
2022-12-07T06:42:26.067Z,0.00
2022-12-07T06:43:26.039Z,0.00
2022-12-07T06:44:26.011Z,0.00
2022-12-07T06:45:26.016Z,0.00
2022-12-07T06:46:26.012Z,0.00
2022-12-07T06:47:40.011Z,4.00
2022-12-07T06:48:25.930Z,4.00
2022-12-07T06:49:25.935Z,0.00
2022-12-07T06:50:25.911Z,4.00
2022-12-07T06:51:25.864Z,4.00
2022-12-07T06:52:25.848Z,4.00
2022-12-07T06:53:25.837Z,4.00
2022-12-07T06:54:25.834Z,4.00
2022-12-07T06:55:25.789Z,4.00
2022-12-07T06:56:25.766Z,8.00
2022-12-07T06:57:25.756Z,8.00
2022-12-07T06:58:25.722Z,8.00
2022-12-07T06:59:25.741Z,8.00
2022-12-07T07:00:25.681Z,12.00
2022-12-07T07:01:25.694Z,16.00
2022-12-07T07:02:25.696Z,16.00
2022-12-07T07:03:25.614Z,16.00
2022-12-07T07:04:25.599Z,20.00
2022-12-07T07:05:25.580Z,24.00
2022-12-07T07:06:25.571Z,28.00
2022-12-07T07:07:25.532Z,32.00
2022-12-07T07:08:25.611Z,36.00
2022-12-07T07:09:25.537Z,40.00
2022-12-07T07:10:25.475Z,44.00
2022-12-07T07:11:25.448Z,48.00
2022-12-07T07:12:25.439Z,52.00
2022-12-07T07:13:25.439Z,56.00
2022-12-07T07:14:25.397Z,60.00
2022-12-07T07:15:25.392Z,68.00
2022-12-07T07:16:25.386Z,68.00
2022-12-07T07:17:25.324Z,68.00
2022-12-07T07:18:25.305Z,72.00
2022-12-07T07:19:25.312Z,76.00
2022-12-07T07:20:25.269Z,80.00
2022-12-07T07:21:25.246Z,80.00
2022-12-07T07:22:25.225Z,88.00
2022-12-07T07:23:25.200Z,104.00
2022-12-07T07:24:25.209Z,108.00
2022-12-07T07:25:25.222Z,116.00
2022-12-07T07:26:25.139Z,120.00
2022-12-07T07:27:25.116Z,132.00
2022-12-07T07:28:25.099Z,136.00
2022-12-07T07:29:25.105Z,140.00
2022-12-07T07:30:25.179Z,140.00
2022-12-07T07:31:25.127Z,144.00
2022-12-07T07:32:25.030Z,140.00
2022-12-07T07:33:24.989Z,144.00
2022-12-07T07:34:24.973Z,156.00
2022-12-07T07:35:24.946Z,164.00
2022-12-07T07:36:24.953Z,156.00
2022-12-07T07:37:24.913Z,144.00
2022-12-07T07:38:24.914Z,140.00
2022-12-07T07:39:24.866Z,172.00
2022-12-07T07:40:24.864Z,192.00
2022-12-07T07:41:24.863Z,192.00
2022-12-07T07:42:24.816Z,212.00
2022-12-07T07:43:24.782Z,232.00
2022-12-07T07:44:26.215Z,248.00
2022-12-07T07:45:24.745Z,280.00
2022-12-07T07:46:24.794Z,312.00
2022-12-07T07:47:24.780Z,368.00
2022-12-07T07:48:24.683Z,400.00
2022-12-07T07:49:24.658Z,416.00
2022-12-07T07:50:24.671Z,428.00
2022-12-07T07:51:24.626Z,456.00
2022-12-07T07:52:24.604Z,468.00
2022-12-07T07:53:24.607Z,460.00
2022-12-07T07:54:24.558Z,404.00
2022-12-07T07:55:24.534Z,356.00
2022-12-07T07:56:24.518Z,396.00
2022-12-07T07:57:24.550Z,480.00
2022-12-07T07:58:24.477Z,512.00
2022-12-07T07:59:24.474Z,552.00
2022-12-07T08:00:24.432Z,572.00
2022-12-07T08:01:24.485Z,548.00
2022-12-07T08:02:24.396Z,592.00
2022-12-07T08:03:24.413Z,636.00
2022-12-07T08:04:24.425Z,568.00
2022-12-07T08:05:24.345Z,536.00
2022-12-07T08:06:29.079Z,508.00
2022-12-07T08:07:24.285Z,508.00
2022-12-07T08:08:24.374Z,568.00
2022-12-07T08:09:24.253Z,628.00
2022-12-07T08:10:24.231Z,712.00
2022-12-07T08:11:24.204Z,848.00
2022-12-07T08:12:24.186Z,960.00
2022-12-07T08:13:30.582Z,984.00
2022-12-07T08:14:24.176Z,972.00
2022-12-07T08:15:24.127Z,964.00
2022-12-07T08:16:24.249Z,1004.00
2022-12-07T08:17:24.079Z,1016.00
2022-12-07T08:18:24.063Z,1064.00
2022-12-07T08:19:24.067Z,1212.00
2022-12-07T08:20:24.046Z,1352.00
2022-12-07T08:21:24.002Z,1272.00
2022-12-07T08:22:23.981Z,1168.00
2022-12-07T08:23:31.534Z,1100.00
2022-12-07T08:24:23.956Z,1020.00
2022-12-07T08:25:24.003Z,1064.00
2022-12-07T08:26:23.931Z,1072.00
2022-12-07T08:27:23.883Z,1076.00
2022-12-07T08:28:23.926Z,1056.00
2022-12-07T08:29:23.833Z,1020.00
2022-12-07T08:30:23.855Z,976.00
2022-12-07T08:31:23.875Z,964.00
2022-12-07T08:32:23.777Z,908.00
2022-12-07T08:33:23.753Z,876.00
2022-12-07T08:34:23.733Z,888.00
2022-12-07T08:35:23.712Z,952.00
2022-12-07T08:36:23.695Z,1080.00
2022-12-07T08:37:23.695Z,1240.00
2022-12-07T08:38:28.641Z,1432.00
2022-12-07T08:39:31.338Z,1488.00
2022-12-07T08:40:23.618Z,1556.00
2022-12-07T08:41:23.636Z,1476.00
2022-12-07T08:42:23.621Z,1144.00
2022-12-07T08:43:23.559Z,920.00
2022-12-07T08:44:23.529Z,876.00
2022-12-07T08:45:27.075Z,888.00
2022-12-07T08:46:23.575Z,920.00
2022-12-07T08:47:23.490Z,980.00
2022-12-07T08:48:23.446Z,1088.00
2022-12-07T08:49:23.432Z,1224.00
2022-12-07T08:50:23.422Z,1412.00
2022-12-07T08:51:23.425Z,1336.00
2022-12-07T08:52:23.389Z,1256.00
2022-12-07T08:53:23.344Z,1384.00
2022-12-07T08:54:23.323Z,1356.00
2022-12-07T08:55:23.305Z,1328.00
2022-12-07T08:56:23.327Z,1288.00
2022-12-07T08:57:23.310Z,1228.00
2022-12-07T08:58:23.485Z,1172.00
2022-12-07T08:59:23.275Z,1072.00
2022-12-07T09:00:23.229Z,1076.00
2022-12-07T09:01:23.227Z,1236.00
2022-12-07T09:02:23.260Z,1412.00
2022-12-07T09:03:23.147Z,1792.00
2022-12-07T09:04:23.149Z,2212.00
2022-12-07T09:05:23.150Z,2368.00
2022-12-07T09:06:23.164Z,1756.00
2022-12-07T09:07:23.081Z,1868.00
2022-12-07T09:08:23.121Z,2004.00
2022-12-07T09:09:23.018Z,2152.00
2022-12-07T09:10:23.029Z,1684.00
2022-12-07T09:11:28.437Z,1500.00
2022-12-07T09:12:22.960Z,1324.00
2022-12-07T09:13:23.253Z,1264.00
2022-12-07T09:14:22.929Z,1456.00
2022-12-07T09:15:22.913Z,1428.00
2022-12-07T09:16:22.958Z,1408.00
2022-12-07T09:17:22.857Z,1440.00
2022-12-07T09:18:22.836Z,1452.00
2022-12-07T09:19:22.812Z,1492.00
2022-12-07T09:20:27.558Z,1596.00
2022-12-07T09:21:22.772Z,1600.00
2022-12-07T09:22:22.757Z,1600.00
2022-12-07T09:23:22.733Z,1708.00
2022-12-07T09:24:22.725Z,1864.00
2022-12-07T09:25:22.704Z,2096.00
2022-12-07T09:26:22.697Z,2936.00
2022-12-07T09:27:22.677Z,3284.00
2022-12-07T09:28:22.631Z,3932.00
2022-12-07T09:29:22.609Z,3796.00
2022-12-07T09:30:22.675Z,3500.00
2022-12-07T09:31:24.303Z,2636.00
2022-12-07T09:32:22.627Z,2672.00
2022-12-07T09:33:22.575Z,2624.00
2022-12-07T09:34:22.580Z,3336.00
2022-12-07T09:35:22.486Z,2628.00
2022-12-07T09:36:22.481Z,2984.00
2022-12-07T09:37:22.505Z,2912.00
2022-12-07T09:38:22.436Z,3360.00
2022-12-07T09:39:22.436Z,3084.00
2022-12-07T09:40:22.428Z,2648.00
2022-12-07T09:41:22.370Z,2516.00
2022-12-07T09:42:22.419Z,2332.00
2022-12-07T09:43:22.436Z,2728.00
2022-12-07T09:44:22.363Z,3312.00
2022-12-07T09:45:22.408Z,2960.00
2022-12-07T09:46:22.375Z,3436.00
2022-12-07T09:47:22.252Z,2820.00
2022-12-07T09:48:22.287Z,2752.00
2022-12-07T09:49:22.205Z,2720.00
2022-12-07T09:50:22.234Z,2488.00
2022-12-07T09:51:24.961Z,2644.00
2022-12-07T09:52:22.139Z,2472.00
2022-12-07T09:53:22.131Z,2520.00
2022-12-07T09:54:22.183Z,2420.00
2022-12-07T09:55:22.156Z,2484.00
2022-12-07T09:56:22.131Z,2556.00
2022-12-07T09:57:22.223Z,2880.00
2022-12-07T09:58:22.037Z,2864.00
2022-12-07T09:59:22.005Z,3196.00
2022-12-07T10:00:22.210Z,3496.00
2022-12-07T10:01:22.052Z,3644.00
2022-12-07T10:02:22.031Z,3520.00
2022-12-07T10:03:21.923Z,3064.00
2022-12-07T10:04:21.981Z,2760.00
2022-12-07T10:05:24.500Z,2848.00
2022-12-07T10:06:22.094Z,2648.00
2022-12-07T10:07:21.869Z,2768.00
2022-12-07T10:08:21.893Z,2960.00
2022-12-07T10:09:21.800Z,3148.00
2022-12-07T10:10:21.798Z,3180.00
2022-12-07T10:11:21.829Z,3168.00
2022-12-07T10:12:21.735Z,3168.00
2022-12-07T10:13:21.733Z,2804.00
2022-12-07T10:14:26.362Z,2408.00
2022-12-07T10:15:22.055Z,2680.00
2022-12-07T10:16:21.778Z,2256.00
2022-12-07T10:17:21.684Z,2720.00
2022-12-07T10:18:21.619Z,2696.00
2022-12-07T10:19:21.653Z,2484.00
2022-12-07T10:20:21.698Z,2304.00
2022-12-07T10:21:21.560Z,2364.00
2022-12-07T10:22:21.536Z,2580.00
2022-12-07T10:23:21.519Z,2500.00
2022-12-07T10:24:21.532Z,2508.00
2022-12-07T10:25:21.537Z,2276.00
2022-12-07T10:26:21.677Z,2316.00
2022-12-07T10:27:21.646Z,2316.00
2022-12-07T10:28:21.613Z,2148.00
2022-12-07T10:29:21.413Z,2136.00
2022-12-07T10:30:21.516Z,2368.00
2022-12-07T10:31:21.424Z,2484.00
2022-12-07T10:32:21.371Z,2368.00
2022-12-07T10:33:21.326Z,2304.00
2022-12-07T10:34:21.343Z,2424.00
2022-12-07T10:35:21.345Z,2488.00
2022-12-07T10:36:21.269Z,2684.00
2022-12-07T10:37:21.347Z,2624.00
2022-12-07T10:38:21.289Z,2528.00
2022-12-07T10:39:21.307Z,2480.00
2022-12-07T10:40:21.177Z,2448.00
2022-12-07T10:41:21.158Z,2312.00
2022-12-07T10:42:21.149Z,2300.00
2022-12-07T10:43:21.167Z,2356.00
2022-12-07T10:44:21.148Z,2444.00
2022-12-07T10:45:21.212Z,2616.00
2022-12-07T10:46:21.203Z,2828.00
2022-12-07T10:47:21.147Z,2908.00
2022-12-07T10:48:21.015Z,2936.00
2022-12-07T10:49:20.999Z,3016.00
2022-12-07T10:50:20.994Z,3292.00
2022-12-07T10:51:20.959Z,3500.00
2022-12-07T10:52:20.929Z,3524.00
2022-12-07T10:53:20.916Z,3852.00
2022-12-07T10:54:20.936Z,4260.00
2022-12-07T10:55:20.874Z,4636.00
2022-12-07T10:56:20.852Z,4624.00
2022-12-07T10:57:20.834Z,4548.00
2022-12-07T10:58:20.823Z,4316.00
2022-12-07T10:59:20.815Z,3880.00
2022-12-07T11:00:20.798Z,3548.00
2022-12-07T11:01:20.811Z,3368.00
2022-12-07T11:02:22.769Z,3428.00
2022-12-07T11:03:20.721Z,3640.00
2022-12-07T11:04:20.719Z,3744.00
2022-12-07T11:05:20.736Z,3720.00
2022-12-07T11:06:20.654Z,3944.00
2022-12-07T11:07:20.634Z,4168.00
2022-12-07T11:08:20.632Z,4164.00
2022-12-07T11:09:33.609Z,4080.00
2022-12-07T11:10:20.918Z,3888.00
2022-12-07T11:11:20.594Z,3736.00
2022-12-07T11:12:20.536Z,3540.00
2022-12-07T11:13:25.115Z,3432.00
2022-12-07T11:14:20.495Z,3208.00
2022-12-07T11:15:20.503Z,3220.00
2022-12-07T11:16:20.495Z,3444.00
2022-12-07T11:17:20.488Z,3384.00
2022-12-07T11:18:20.415Z,3228.00
2022-12-07T11:20:20.401Z,2860.00
2022-12-07T11:21:20.359Z,2716.00
2022-12-07T11:22:20.336Z,2512.00
2022-12-07T11:23:20.369Z,2144.00
2022-12-07T11:24:20.296Z,2008.00
2022-12-07T11:25:24.273Z,1984.00
2022-12-07T11:26:20.253Z,2080.00
2022-12-07T11:27:20.241Z,2080.00
2022-12-07T11:28:20.215Z,2128.00
2022-12-07T11:29:20.203Z,2372.00
2022-12-07T11:30:20.175Z,2580.00
2022-12-07T11:31:24.438Z,3132.00
2022-12-07T11:32:20.142Z,3572.00
2022-12-07T11:33:20.116Z,3868.00
2022-12-07T11:34:20.147Z,4224.00
2022-12-07T11:35:20.075Z,4572.00
2022-12-07T11:36:20.056Z,4708.00
2022-12-07T11:37:20.053Z,4944.00
2022-12-07T11:38:22.216Z,5172.00
2022-12-07T11:39:20.005Z,5228.00
2022-12-07T11:40:19.974Z,5660.00
2022-12-07T11:41:19.955Z,5988.00
2022-12-07T11:42:19.960Z,6260.00
2022-12-07T11:43:19.938Z,5996.00
2022-12-07T11:44:25.682Z,5828.00
2022-12-07T11:45:19.879Z,6052.00
2022-12-07T11:46:19.890Z,6024.00
2022-12-07T11:47:19.848Z,5272.00
2022-12-07T11:48:19.826Z,4808.00
2022-12-07T11:49:19.801Z,4588.00
2022-12-07T11:50:20.428Z,4468.00
2022-12-07T11:51:19.758Z,4412.00
2022-12-07T11:52:19.800Z,4308.00
2022-12-07T11:53:19.724Z,4376.00
2022-12-07T11:54:19.705Z,4496.00
2022-12-07T11:55:19.685Z,4300.00
2022-12-07T11:56:19.665Z,4312.00
2022-12-07T11:57:20.276Z,4252.00
2022-12-07T11:58:19.625Z,3992.00
2022-12-07T11:59:19.606Z,3716.00
2022-12-07T12:00:19.600Z,3740.00
2022-12-07T12:01:19.612Z,4108.00
2022-12-07T12:02:19.601Z,4472.00
2022-12-07T12:03:19.614Z,4576.00
2022-12-07T12:04:19.509Z,4564.00
2022-12-07T12:05:19.489Z,4168.00
2022-12-07T12:06:19.467Z,3580.00
2022-12-07T12:10:19.393Z,2288.00
2022-12-07T12:11:19.367Z,1836.00
2022-12-07T12:14:35.306Z,1852.00
2022-12-07T12:15:19.297Z,2052.00
2022-12-07T12:16:19.359Z,2376.00
2022-12-07T12:17:19.262Z,2776.00
2022-12-07T12:18:19.230Z,3188.00
2022-12-07T12:19:19.275Z,3680.00
2022-12-07T12:20:19.197Z,4136.00
2022-12-07T12:21:19.969Z,4472.00
2022-12-07T12:22:19.152Z,4992.00
2022-12-07T12:23:19.155Z,5076.00
2022-12-07T12:24:19.113Z,5160.00
2022-12-07T12:25:19.163Z,5348.00
2022-12-07T12:26:19.174Z,5404.00
2022-12-07T12:27:19.060Z,5492.00
2022-12-07T12:28:19.032Z,5652.00
2022-12-07T12:29:19.024Z,5468.00
2022-12-07T12:30:18.994Z,5148.00
2022-12-07T12:31:19.041Z,5172.00
2022-12-07T12:32:19.093Z,8252.00
2022-12-07T12:33:18.935Z,4800.00
2022-12-07T12:34:18.916Z,4952.00
2022-12-07T12:35:18.896Z,4748.00
2022-12-07T12:36:18.978Z,5312.00
2022-12-07T12:37:27.448Z,6088.00
2022-12-07T12:38:18.841Z,6668.00
2022-12-07T12:39:18.827Z,5960.00
2022-12-07T12:40:18.827Z,5588.00
2022-12-07T12:41:18.805Z,5420.00
2022-12-07T12:42:18.761Z,5148.00
2022-12-07T12:43:18.813Z,4940.00
2022-12-07T12:44:18.718Z,4676.00
2022-12-07T12:45:18.721Z,4480.00
2022-12-07T12:46:18.729Z,4372.00
2022-12-07T12:47:18.665Z,4400.00
2022-12-07T12:48:18.654Z,4652.00
2022-12-07T12:49:18.631Z,5000.00
2022-12-07T12:50:18.626Z,5088.00
2022-12-07T12:51:18.623Z,4812.00
2022-12-07T12:52:18.563Z,4768.00
2022-12-07T12:53:18.577Z,4912.00